createdAt,value
2018-12-14T00:06:32.635Z,77.43
2018-12-14T00:10:37.672Z,77.34
2018-12-14T00:14:42.642Z,77.25
2018-12-14T00:18:47.602Z,77.37
2018-12-14T00:22:52.533Z,77.45
2018-12-14T00:31:13.120Z,77.10
2018-12-14T00:39:30.188Z,76.74
2018-12-14T00:43:35.802Z,76.58
2018-12-14T00:47:40.807Z,76.69
2018-12-14T00:51:45.818Z,76.75
2018-12-14T00:55:50.759Z,76.72
2018-12-14T00:59:56.134Z,76.41
2018-12-14T01:04:01.257Z,76.44
2018-12-14T01:08:06.229Z,76.24
2018-12-14T01:12:11.191Z,76.17
2018-12-14T01:16:16.687Z,76.09
2018-12-14T01:20:21.675Z,76.21
2018-12-14T01:24:26.555Z,76.34
2018-12-14T01:28:31.571Z,76.13
2018-12-14T01:32:36.571Z,75.90
2018-12-14T01:36:41.500Z,76.02
2018-12-14T01:40:46.511Z,75.76
2018-12-14T01:44:51.536Z,75.82
2018-12-14T01:48:56.858Z,75.74
2018-12-14T01:53:01.783Z,75.89
2018-12-14T01:57:06.657Z,75.85
2018-12-14T02:01:11.634Z,76.00
2018-12-14T02:05:16.606Z,76.03
2018-12-14T02:09:21.677Z,75.62
2018-12-14T02:13:26.616Z,75.72
2018-12-14T02:17:31.653Z,75.88
2018-12-14T02:21:36.626Z,76.20
2018-12-14T02:25:41.662Z,76.21
2018-12-14T02:29:46.547Z,76.09
2018-12-14T02:33:51.550Z,76.05
2018-12-14T02:37:56.682Z,76.08
2018-12-14T02:42:01.601Z,75.95
2018-12-14T02:46:06.587Z,76.01
2018-12-14T02:50:11.474Z,76.20
2018-12-14T02:54:16.506Z,76.37
2018-12-14T02:58:21.499Z,76.45
2018-12-14T03:02:26.395Z,76.45
2018-12-14T03:06:31.288Z,76.41
2018-12-14T03:10:36.234Z,76.41
2018-12-14T03:14:41.142Z,76.28
2018-12-14T03:18:46.074Z,76.25
2018-12-14T03:22:51.103Z,76.26
2018-12-14T03:26:56.036Z,76.39
2018-12-14T03:35:11.009Z,76.43
2018-12-14T03:39:16.008Z,76.35
2018-12-14T03:43:20.869Z,76.27
2018-12-14T03:47:25.851Z,76.25
2018-12-14T03:51:30.754Z,76.39
2018-12-14T03:55:42.687Z,76.67
2018-12-14T04:00:07.160Z,76.70
2018-12-14T04:04:12.135Z,76.73
2018-12-14T04:08:17.083Z,76.81
2018-12-14T04:12:22.039Z,76.96
2018-12-14T04:16:26.986Z,76.82
2018-12-14T04:20:32.049Z,76.64
2018-12-14T04:24:37.123Z,76.42
2018-12-14T04:28:42.197Z,76.29
2018-12-14T04:32:47.252Z,76.42
2018-12-14T04:36:52.159Z,76.37
2018-12-14T04:40:57.159Z,76.42
2018-12-14T04:45:02.127Z,76.39
2018-12-14T04:49:07.033Z,76.56
2018-12-14T04:53:11.974Z,76.60
2018-12-14T04:57:17.038Z,76.53
2018-12-14T05:01:21.974Z,76.30
2018-12-14T05:05:27.051Z,75.88
2018-12-14T05:09:31.984Z,75.94
2018-12-14T05:13:37.012Z,76.11
2018-12-14T05:17:42.005Z,76.29
2018-12-14T05:21:47.120Z,76.33
2018-12-14T05:25:52.075Z,76.41
2018-12-14T05:29:57.279Z,76.45
2018-12-14T05:34:02.325Z,76.34
2018-12-14T05:38:07.185Z,76.27
2018-12-14T05:42:12.143Z,76.20
2018-12-14T05:46:17.026Z,75.91
2018-12-14T05:50:22.287Z,75.80
2018-12-14T05:54:27.230Z,76.01
2018-12-14T05:58:32.165Z,75.91
2018-12-14T06:02:37.089Z,75.93
2018-12-14T06:06:42.219Z,75.87
2018-12-14T06:10:47.199Z,75.75
2018-12-14T06:14:52.162Z,75.96
2018-12-14T06:18:57.115Z,75.91
2018-12-14T06:23:02.024Z,75.89
2018-12-14T06:27:06.996Z,75.92
2018-12-14T06:31:12.066Z,75.99
2018-12-14T06:35:17.059Z,76.14
2018-12-14T06:39:22.250Z,76.15
2018-12-14T06:43:27.178Z,76.10
2018-12-14T06:47:32.240Z,76.03
2018-12-14T06:51:37.608Z,75.98
2018-12-14T06:55:44.096Z,75.89
2018-12-14T06:59:49.054Z,75.83
2018-12-14T07:03:54.048Z,75.73
2018-12-14T07:07:58.999Z,75.56
2018-12-14T07:12:03.953Z,75.47
2018-12-14T07:16:08.915Z,75.57
2018-12-14T07:20:13.926Z,75.64
2018-12-14T07:24:18.903Z,75.30
2018-12-14T07:28:23.906Z,75.42
2018-12-14T07:32:28.918Z,75.51
2018-12-14T07:36:33.863Z,75.25
2018-12-14T07:40:38.866Z,75.05
2018-12-14T07:44:43.971Z,75.19
2018-12-14T07:48:50.780Z,75.30
2018-12-14T07:52:59.210Z,75.29
2018-12-14T07:57:04.224Z,75.01
2018-12-14T08:01:09.193Z,74.79
2018-12-14T08:05:14.109Z,74.91
2018-12-14T08:13:34.769Z,74.94
2018-12-14T08:17:37.955Z,74.71
2018-12-14T08:21:42.838Z,74.79
2018-12-14T08:25:47.820Z,74.92
2018-12-14T08:29:52.895Z,74.84
2018-12-14T08:33:58.288Z,74.82
2018-12-14T08:38:03.433Z,74.70
2018-12-14T08:42:08.419Z,74.48
2018-12-14T08:46:13.456Z,74.47
2018-12-14T08:50:18.830Z,74.57
2018-12-14T08:58:49.826Z,74.73
2018-12-14T09:02:54.877Z,74.95
2018-12-14T09:06:59.843Z,74.80
2018-12-14T09:11:04.859Z,74.96
2018-12-14T09:15:09.787Z,74.98
2018-12-14T09:19:14.755Z,74.70
2018-12-14T09:23:19.913Z,74.95
2018-12-14T09:27:24.967Z,75.10
2018-12-14T09:31:30.523Z,75.19
2018-12-14T09:35:35.623Z,74.94
2018-12-14T09:39:40.592Z,74.77
2018-12-14T09:43:45.619Z,74.58
2018-12-14T09:47:50.586Z,74.52
2018-12-14T09:51:55.427Z,74.45
2018-12-14T09:56:00.675Z,74.59
2018-12-14T10:00:05.701Z,74.74
2018-12-14T10:04:10.767Z,74.69
2018-12-14T10:08:15.916Z,74.70
2018-12-14T10:12:20.949Z,74.84
2018-12-14T10:16:25.928Z,74.85
2018-12-14T10:20:30.963Z,74.71
2018-12-14T10:24:35.855Z,74.83
2018-12-14T10:28:40.839Z,74.86
2018-12-14T10:32:45.904Z,74.80
2018-12-14T10:36:50.984Z,74.86
2018-12-14T10:40:56.076Z,75.03
2018-12-14T10:45:01.103Z,75.07
2018-12-14T10:49:06.373Z,74.93
2018-12-14T10:53:30.076Z,75.00
2018-12-14T10:57:35.217Z,74.56
2018-12-14T11:01:58.948Z,74.60
2018-12-14T11:06:04.003Z,74.74
2018-12-14T11:10:09.684Z,74.79
2018-12-14T11:14:14.710Z,74.75
2018-12-14T11:18:19.578Z,74.67
2018-12-14T11:22:24.529Z,74.76
2018-12-14T11:26:29.518Z,74.64
2018-12-14T11:30:34.511Z,74.60
2018-12-14T11:34:39.529Z,74.65
2018-12-14T11:38:44.491Z,74.50
2018-12-14T11:42:49.702Z,74.38
2018-12-14T11:46:54.638Z,74.21
2018-12-14T11:50:59.721Z,74.46
2018-12-14T11:55:04.631Z,74.52
2018-12-14T11:59:09.684Z,74.31
2018-12-14T12:03:14.744Z,74.27
2018-12-14T12:07:19.773Z,74.26
2018-12-14T12:11:24.777Z,74.37
2018-12-14T12:15:29.759Z,74.42
2018-12-14T12:19:34.723Z,74.55
2018-12-14T12:24:19.036Z,74.60
2018-12-14T12:28:24.039Z,74.67
2018-12-14T12:32:29.090Z,74.65
2018-12-14T12:36:34.070Z,74.37
2018-12-14T12:40:39.109Z,74.26
2018-12-14T12:44:44.112Z,74.09
2018-12-14T12:48:49.316Z,74.08
2018-12-14T12:52:54.277Z,74.35
2018-12-14T12:56:59.334Z,74.72
2018-12-14T13:01:04.304Z,74.78
2018-12-14T13:05:09.296Z,74.65
2018-12-14T13:09:14.226Z,74.69
2018-12-14T13:13:19.190Z,74.54
2018-12-14T13:17:24.115Z,74.50
2018-12-14T13:21:29.094Z,74.38
2018-12-14T13:25:34.068Z,74.35
2018-12-14T13:29:39.158Z,74.04
2018-12-14T13:33:44.089Z,73.96
2018-12-14T13:37:49.055Z,74.22
2018-12-14T13:41:53.974Z,73.99
2018-12-14T13:45:59.377Z,74.30
2018-12-14T13:50:04.417Z,74.41
2018-12-14T13:54:09.341Z,74.47
2018-12-14T13:58:14.356Z,74.46
2018-12-14T14:02:19.270Z,74.48
2018-12-14T14:06:24.346Z,74.55
2018-12-14T14:10:48.229Z,74.63
2018-12-14T14:14:53.210Z,74.75
2018-12-14T14:18:57.980Z,74.77
2018-12-14T14:23:02.948Z,74.84
2018-12-14T14:27:08.031Z,74.82
2018-12-14T14:31:12.930Z,74.83
2018-12-14T14:35:17.968Z,74.76
2018-12-14T14:39:22.864Z,74.83
2018-12-14T14:43:27.828Z,74.74
2018-12-14T14:47:32.807Z,74.63
2018-12-14T14:51:38.109Z,74.78
2018-12-14T14:55:43.111Z,75.04
2018-12-14T14:59:48.178Z,75.13
2018-12-14T15:03:53.150Z,75.12
2018-12-14T15:07:58.618Z,75.01
2018-12-14T15:12:03.663Z,75.08
2018-12-14T15:16:08.676Z,75.24
2018-12-14T15:20:13.846Z,75.38
2018-12-14T15:24:19.251Z,75.40
2018-12-14T15:28:24.244Z,76.09
2018-12-14T15:32:29.224Z,75.88
2018-12-14T15:36:34.131Z,75.25
2018-12-14T15:40:39.093Z,75.06
2018-12-14T15:44:44.166Z,75.24
2018-12-14T15:48:49.127Z,75.37
2018-12-14T15:52:54.118Z,75.66
2018-12-14T15:56:59.008Z,77.13
2018-12-14T16:01:03.972Z,75.67
2018-12-14T16:05:08.905Z,75.37
2018-12-14T16:09:14.052Z,75.17
2018-12-14T16:13:19.038Z,75.62
2018-12-14T16:21:42.551Z,75.60
2018-12-14T16:25:47.608Z,75.97
2018-12-14T16:29:52.556Z,75.75
2018-12-14T16:33:57.570Z,75.99
2018-12-14T16:38:02.592Z,75.98
2018-12-14T16:42:07.553Z,75.92
2018-12-14T16:46:12.428Z,75.87
2018-12-14T16:50:17.429Z,75.96
2018-12-14T16:54:22.365Z,76.25
2018-12-14T16:58:27.471Z,76.31
2018-12-14T17:02:32.471Z,76.39
2018-12-14T17:06:56.158Z,76.96
2018-12-14T17:11:01.253Z,76.37
2018-12-14T17:15:08.642Z,76.16
2018-12-14T17:19:13.494Z,75.89
2018-12-14T17:23:18.551Z,75.77
2018-12-14T17:27:23.566Z,75.65
2018-12-14T17:31:28.508Z,75.54
2018-12-14T17:35:33.454Z,75.62
2018-12-14T17:39:38.531Z,75.62
2018-12-14T17:43:43.423Z,75.63
2018-12-14T17:47:48.471Z,75.61
2018-12-14T17:51:53.446Z,75.60
2018-12-14T17:55:58.478Z,75.75
2018-12-14T18:00:03.521Z,75.73
2018-12-14T18:04:08.459Z,75.77
2018-12-14T18:08:13.856Z,75.73
2018-12-14T18:12:19.241Z,75.71
2018-12-14T18:16:24.581Z,75.72
2018-12-14T18:20:29.572Z,75.46
2018-12-14T18:24:34.506Z,75.40
2018-12-14T18:28:39.659Z,75.44
2018-12-14T18:32:44.955Z,75.47
2018-12-14T18:36:49.938Z,75.45
2018-12-14T18:40:55.015Z,75.37
2018-12-14T18:44:59.936Z,75.32
2018-12-14T18:49:05.066Z,74.98
2018-12-14T18:53:10.112Z,74.34
2018-12-14T18:57:15.277Z,74.54
2018-12-14T19:01:20.371Z,74.65
2018-12-14T19:05:25.268Z,74.73
2018-12-14T19:09:30.266Z,74.92
2018-12-14T19:13:35.113Z,74.81
2018-12-14T19:17:39.971Z,74.86
2018-12-14T19:21:44.849Z,74.85
2018-12-14T19:25:49.775Z,74.97
2018-12-14T19:34:06.960Z,75.07
2018-12-14T19:38:11.773Z,75.13
2018-12-14T19:42:16.611Z,75.18
2018-12-14T19:46:21.432Z,75.17
2018-12-14T19:50:26.257Z,75.19
2018-12-14T19:54:31.166Z,75.36
2018-12-14T19:58:36.079Z,75.46
2018-12-14T20:02:40.949Z,75.70
2018-12-14T20:06:45.847Z,75.72
2018-12-14T20:10:50.650Z,75.90
2018-12-14T20:14:55.521Z,76.10
2018-12-14T20:19:00.283Z,76.13
2018-12-14T20:23:05.124Z,76.20
2018-12-14T20:27:09.916Z,76.33
2018-12-14T20:31:14.750Z,76.49
2018-12-14T20:35:19.863Z,76.68
2018-12-14T20:39:24.768Z,76.65
2018-12-14T20:43:30.004Z,77.00
2018-12-14T20:47:34.833Z,77.21
2018-12-14T20:51:40.373Z,77.45
2018-12-14T20:55:45.178Z,77.65
2018-12-14T20:59:50.030Z,77.55
2018-12-14T21:03:55.071Z,77.89
2018-12-14T21:07:59.877Z,77.99
2018-12-14T21:12:04.728Z,78.18
2018-12-14T21:16:09.539Z,78.15
2018-12-14T21:20:14.365Z,78.15
2018-12-14T21:24:19.277Z,78.34
2018-12-14T21:28:24.542Z,78.56
2018-12-14T21:32:29.366Z,78.63
2018-12-14T21:36:34.196Z,78.61
2018-12-14T21:40:38.955Z,78.58
2018-12-14T21:44:43.793Z,78.56
2018-12-14T21:48:48.655Z,78.45
2018-12-14T21:52:53.475Z,78.61
2018-12-14T21:56:58.325Z,78.86
2018-12-14T22:01:03.094Z,79.20
2018-12-14T22:05:08.532Z,79.08
2018-12-14T22:09:13.457Z,79.14
2018-12-14T22:13:18.286Z,79.28
2018-12-14T22:17:23.111Z,79.41
2018-12-14T22:21:27.924Z,79.41
2018-12-14T22:25:32.759Z,79.32
2018-12-14T22:29:37.545Z,79.38
2018-12-14T22:33:42.373Z,79.70
2018-12-14T22:37:47.367Z,79.51
2018-12-14T22:41:52.376Z,79.65
2018-12-14T22:45:57.368Z,79.81
2018-12-14T22:50:02.437Z,79.80
2018-12-14T22:54:07.492Z,79.77
2018-12-14T22:58:12.487Z,79.99
2018-12-14T23:02:17.481Z,80.10
2018-12-14T23:06:22.909Z,80.07
2018-12-14T23:10:27.987Z,79.83
2018-12-14T23:14:32.997Z,80.05
2018-12-14T23:18:38.411Z,80.37
2018-12-14T23:22:43.420Z,80.37
2018-12-14T23:26:48.499Z,80.31
2018-12-14T23:30:53.454Z,80.41
2018-12-14T23:34:58.487Z,80.53
2018-12-14T23:39:03.758Z,80.54
2018-12-14T23:43:08.666Z,80.52
2018-12-14T23:47:13.622Z,80.53
2018-12-14T23:51:18.593Z,80.76
2018-12-14T23:55:24.091Z,81.04
2018-12-14T23:59:29.134Z,80.97
